sensor_id;sensor_type;location;lat;lon;timestamp;pressure;altitude;pressure_sealevel;temperature
13497;BMP180;6820;49.374;8.452;2023-05-07T00:02:39;100459.53;;;23.99
13497;BMP180;6820;49.374;8.452;2023-05-07T00:06:41;100444.81;;;23.92
13497;BMP180;6820;49.374;8.452;2023-05-07T00:10:43;100440.50;;;23.95
13497;BMP180;6820;49.374;8.452;2023-05-07T00:14:45;100424.97;;;23.94
13497;BMP180;6820;49.374;8.452;2023-05-07T00:18:46;100425.84;;;23.96
13497;BMP180;6820;49.374;8.452;2023-05-07T00:22:48;100430.13;;;23.89
13497;BMP180;6820;49.374;8.452;2023-05-07T00:26:50;100424.03;;;23.87
13497;BMP180;6820;49.374;8.452;2023-05-07T00:30:52;100424.91;;;23.88
13497;BMP180;6820;49.374;8.452;2023-05-07T00:34:54;100430.06;;;23.85
13497;BMP180;6820;49.374;8.452;2023-05-07T00:38:56;100428.34;;;23.85
13497;BMP180;6820;49.374;8.452;2023-05-07T00:42:58;100426.59;;;23.82
13497;BMP180;6820;49.374;8.452;2023-05-07T00:47:02;100427.47;;;23.81
13497;BMP180;6820;49.374;8.452;2023-05-07T00:51:05;100427.47;;;23.81
13497;BMP180;6820;49.374;8.452;2023-05-07T00:55:07;100422.25;;;23.79
13497;BMP180;6820;49.374;8.452;2023-05-07T00:59:09;100405.78;;;23.71
13497;BMP180;6820;49.374;8.452;2023-05-07T01:03:11;100406.63;;;23.67
13497;BMP180;6820;49.374;8.452;2023-05-07T01:07:14;100404.81;;;23.59
13497;BMP180;6820;49.374;8.452;2023-05-07T01:11:16;100402.13;;;23.50
13497;BMP180;6820;49.374;8.452;2023-05-07T01:15:20;100408.91;;;23.42
13497;BMP180;6820;49.374;8.452;2023-05-07T01:19:22;100398.59;;;23.44
13497;BMP180;6820;49.374;8.452;2023-05-07T01:23:25;100404.59;;;23.43
13497;BMP180;6820;49.374;8.452;2023-05-07T01:27:27;100403.75;;;23.42
13497;BMP180;6820;49.374;8.452;2023-05-07T01:31:29;100396.78;;;23.35
13497;BMP180;6820;49.374;8.452;2023-05-07T01:35:38;100401.00;;;23.27
13497;BMP180;6820;49.374;8.452;2023-05-07T01:39:42;100398.34;;;23.22
13497;BMP180;6820;49.374;8.452;2023-05-07T01:43:44;100404.31;;;23.16
13497;BMP180;6820;49.374;8.452;2023-05-07T01:47:46;100405.06;;;23.08
13497;BMP180;6820;49.374;8.452;2023-05-07T01:51:48;100411.88;;;22.98
13497;BMP180;6820;49.374;8.452;2023-05-07T01:55:50;100411.75;;;22.91
13497;BMP180;6820;49.374;8.452;2023-05-07T01:59:52;100416.91;;;22.88
13497;BMP180;6820;49.374;8.452;2023-05-07T02:03:53;100416.00;;;22.86
13497;BMP180;6820;49.374;8.452;2023-05-07T02:07:59;100411.66;;;22.82
13497;BMP180;6820;49.374;8.452;2023-05-07T02:12:02;100413.25;;;22.74
13497;BMP180;6820;49.374;8.452;2023-05-07T02:16:05;100409.75;;;22.72
13497;BMP180;6820;49.374;8.452;2023-05-07T02:20:07;100403.63;;;22.64
13497;BMP180;6820;49.374;8.452;2023-05-07T02:24:16;100411.34;;;22.61
13497;BMP180;6820;49.374;8.452;2023-05-07T02:28:17;100413.06;;;22.62
13497;BMP180;6820;49.374;8.452;2023-05-07T02:32:25;100418.28;;;22.65
13497;BMP180;6820;49.374;8.452;2023-05-07T02:36:27;100420.03;;;22.68
13497;BMP180;6820;49.374;8.452;2023-05-07T02:40:35;100421.75;;;22.66
13497;BMP180;6820;49.374;8.452;2023-05-07T02:44:40;100408.69;;;22.56
13497;BMP180;6820;49.374;8.452;2023-05-07T02:48:41;100406.03;;;22.51
13497;BMP180;6820;49.374;8.452;2023-05-07T02:52:43;100406.03;;;22.51
13497;BMP180;6820;49.374;8.452;2023-05-07T02:56:45;100408.66;;;22.54
13497;BMP180;6820;49.374;8.452;2023-05-07T03:00:47;100411.19;;;22.51
13497;BMP180;6820;49.374;8.452;2023-05-07T03:05:14;100416.28;;;22.47
13497;BMP180;6820;49.374;8.452;2023-05-07T03:09:16;100406.78;;;22.43
13497;BMP180;6820;49.374;8.452;2023-05-07T03:13:18;100399.84;;;22.40
13497;BMP180;6820;49.374;8.452;2023-05-07T03:17:20;100402.44;;;22.40
13497;BMP180;6820;49.374;8.452;2023-05-07T03:21:22;100395.53;;;22.39
13497;BMP180;6820;49.374;8.452;2023-05-07T03:25:23;100388.50;;;22.30
13497;BMP180;6820;49.374;8.452;2023-05-07T03:29:25;100396.97;;;22.21
13497;BMP180;6820;49.374;8.452;2023-05-07T03:33:27;100391.81;;;22.21
13497;BMP180;6820;49.374;8.452;2023-05-07T03:37:29;100389.97;;;22.13
13497;BMP180;6820;49.374;8.452;2023-05-07T03:41:32;100394.06;;;22.02
13497;BMP180;6820;49.374;8.452;2023-05-07T03:45:33;100390.69;;;22.04
13497;BMP180;6820;49.374;8.452;2023-05-07T03:49:46;100397.69;;;22.10
13497;BMP180;6820;49.374;8.452;2023-05-07T03:53:48;100407.88;;;22.07
13497;BMP180;6820;49.374;8.452;2023-05-07T03:57:50;100406.13;;;22.03
13497;BMP180;6820;49.374;8.452;2023-05-07T04:01:53;100418.06;;;21.97
13497;BMP180;6820;49.374;8.452;2023-05-07T04:05:57;100417.16;;;21.95
13497;BMP180;6820;49.374;8.452;2023-05-07T04:09:59;100412.84;;;21.94
13497;BMP180;6820;49.374;8.452;2023-05-07T04:14:01;100417.19;;;21.96
13497;BMP180;6820;49.374;8.452;2023-05-07T04:18:03;100413.78;;;21.98
13497;BMP180;6820;49.374;8.452;2023-05-07T04:22:04;100423.28;;;21.99
13497;BMP180;6820;49.374;8.452;2023-05-07T04:26:06;100424.19;;;22.03
13497;BMP180;6820;49.374;8.452;2023-05-07T04:30:13;100425.19;;;22.09
13497;BMP180;6820;49.374;8.452;2023-05-07T04:34:15;100427.91;;;22.18
13497;BMP180;6820;49.374;8.452;2023-05-07T04:38:17;100432.16;;;22.15
13497;BMP180;6820;49.374;8.452;2023-05-07T04:42:21;100424.44;;;22.16
13497;BMP180;6820;49.374;8.452;2023-05-07T04:46:24;100429.66;;;22.19
13497;BMP180;6820;49.374;8.452;2023-05-07T04:50:28;100425.44;;;22.26
13497;BMP180;6820;49.374;8.452;2023-05-07T04:54:34;100427.19;;;22.27
13497;BMP180;6820;49.374;8.452;2023-05-07T04:58:36;100430.75;;;22.36
13497;BMP180;6820;49.374;8.452;2023-05-07T05:02:38;100443.78;;;22.43
13497;BMP180;6820;49.374;8.452;2023-05-07T05:06:40;100438.81;;;22.57
13497;BMP180;6820;49.374;8.452;2023-05-07T05:10:44;100439.91;;;22.73
13497;BMP180;6820;49.374;8.452;2023-05-07T05:14:46;100443.47;;;22.80
13497;BMP180;6820;49.374;8.452;2023-05-07T05:18:48;100451.19;;;22.77
13497;BMP180;6820;49.374;8.452;2023-05-07T05:22:53;100446.09;;;22.81
13497;BMP180;6820;49.374;8.452;2023-05-07T05:26:54;100446.97;;;22.83
13497;BMP180;6820;49.374;8.452;2023-05-07T05:30:57;100461.81;;;22.96
13497;BMP180;6820;49.374;8.452;2023-05-07T05:35:01;100461.88;;;23.02
13497;BMP180;6820;49.374;8.452;2023-05-07T05:39:04;100459.28;;;23.02
13497;BMP180;6820;49.374;8.452;2023-05-07T05:43:06;100458.31;;;22.92
13497;BMP180;6820;49.374;8.452;2023-05-07T05:47:07;100459.22;;;22.96
13497;BMP180;6820;49.374;8.452;2023-05-07T05:51:09;100456.63;;;22.97
13497;BMP180;6820;49.374;8.452;2023-05-07T05:55:11;100464.50;;;23.03
13497;BMP180;6820;49.374;8.452;2023-05-07T05:59:13;100460.47;;;23.26
13497;BMP180;6820;49.374;8.452;2023-05-07T06:03:15;100468.44;;;23.45
13497;BMP180;6820;49.374;8.452;2023-05-07T06:07:17;100472.88;;;23.53
13497;BMP180;6820;49.374;8.452;2023-05-07T06:11:19;100465.13;;;23.55
13497;BMP180;6820;49.374;8.452;2023-05-07T06:15:22;100462.44;;;23.46
13497;BMP180;6820;49.374;8.452;2023-05-07T06:19:24;100474.53;;;23.49
13497;BMP180;6820;49.374;8.452;2023-05-07T06:23:28;100474.66;;;23.57
13497;BMP180;6820;49.374;8.452;2023-05-07T06:27:30;100467.88;;;23.68
13497;BMP180;6820;49.374;8.452;2023-05-07T06:31:32;100466.34;;;23.86
13497;BMP180;6820;49.374;8.452;2023-05-07T06:35:38;100462.22;;;24.08
13497;BMP180;6820;49.374;8.452;2023-05-07T06:39:40;100469.97;;;24.05
13497;BMP180;6820;49.374;8.452;2023-05-07T06:43:42;100458.13;;;24.33
13497;BMP180;6820;49.374;8.452;2023-05-07T06:47:59;100455.69;;;24.54
13497;BMP180;6820;49.374;8.452;2023-05-07T06:52:03;100447.84;;;24.44
13497;BMP180;6820;49.374;8.452;2023-05-07T06:56:05;100459.88;;;24.34
13497;BMP180;6820;49.374;8.452;2023-05-07T07:00:07;100470.41;;;24.62
13497;BMP180;6820;49.374;8.452;2023-05-07T07:04:21;100460.25;;;24.89
13497;BMP180;6820;49.374;8.452;2023-05-07T07:08:32;100466.44;;;25.17
13497;BMP180;6820;49.374;8.452;2023-05-07T07:12:34;100466.53;;;25.44
13497;BMP180;6820;49.374;8.452;2023-05-07T07:16:37;100463.94;;;25.44
13497;BMP180;6820;49.374;8.452;2023-05-07T07:20:38;100472.56;;;25.38
13497;BMP180;6820;49.374;8.452;2023-05-07T07:24:42;100473.44;;;25.48
13497;BMP180;6820;49.374;8.452;2023-05-07T07:28:46;100459.72;;;25.68
13497;BMP180;6820;49.374;8.452;2023-05-07T07:32:52;100459.72;;;25.68
13497;BMP180;6820;49.374;8.452;2023-05-07T07:36:54;100461.47;;;25.90
13497;BMP180;6820;49.374;8.452;2023-05-07T07:40:57;100464.94;;;26.09
13497;BMP180;6820;49.374;8.452;2023-05-07T07:44:59;100475.38;;;26.32
13497;BMP180;6820;49.374;8.452;2023-05-07T07:49:05;100466.69;;;26.38
13497;BMP180;6820;49.374;8.452;2023-05-07T07:53:07;100479.72;;;26.24
13497;BMP180;6820;49.374;8.452;2023-05-07T07:57:09;100483.19;;;26.42
13497;BMP180;6820;49.374;8.452;2023-05-07T08:01:11;100486.63;;;26.63
13497;BMP180;6820;49.374;8.452;2023-05-07T08:05:15;100491.78;;;26.72
13497;BMP180;6820;49.374;8.452;2023-05-07T08:09:17;100477.91;;;26.93
13497;BMP180;6820;49.374;8.452;2023-05-07T08:13:21;100487.38;;;27.09
13497;BMP180;6820;49.374;8.452;2023-05-07T08:17:24;100496.94;;;27.07
13497;BMP180;6820;49.374;8.452;2023-05-07T08:21:26;100490.88;;;27.11
13497;BMP180;6820;49.374;8.452;2023-05-07T08:25:28;100483.78;;;27.47
13497;BMP180;6820;49.374;8.452;2023-05-07T08:29:30;100481.03;;;27.69
13497;BMP180;6820;49.374;8.452;2023-05-07T08:33:33;100505.38;;;27.64
13497;BMP180;6820;49.374;8.452;2023-05-07T08:37:35;100505.28;;;27.86
13497;BMP180;6820;49.374;8.452;2023-05-07T08:41:37;100486.06;;;28.03
13497;BMP180;6820;49.374;8.452;2023-05-07T08:45:39;100484.25;;;28.14
13497;BMP180;6820;49.374;8.452;2023-05-07T08:49:44;100473.09;;;27.93
13497;BMP180;6820;49.374;8.452;2023-05-07T08:53:48;100458.34;;;27.89
13497;BMP180;6820;49.374;8.452;2023-05-07T08:57:57;100467.94;;;27.83
13497;BMP180;6820;49.374;8.452;2023-05-07T09:01:59;100484.28;;;28.07
13497;BMP180;6820;49.374;8.452;2023-05-07T09:06:01;100482.56;;;28.10
13497;BMP180;6820;49.374;8.452;2023-05-07T09:10:05;100485.94;;;28.21
13497;BMP180;6820;49.374;8.452;2023-05-07T09:14:09;100481.41;;;28.41
13497;BMP180;6820;49.374;8.452;2023-05-07T09:18:15;100474.41;;;28.46
13497;BMP180;6820;49.374;8.452;2023-05-07T09:22:19;100472.63;;;28.55
13497;BMP180;6820;49.374;8.452;2023-05-07T09:26:29;100474.97;;;28.78
13497;BMP180;6820;49.374;8.452;2023-05-07T09:30:33;100465.44;;;28.79
13497;BMP180;6820;49.374;8.452;2023-05-07T09:34:38;100463.72;;;28.75
13497;BMP180;6820;49.374;8.452;2023-05-07T09:38:41;100462.03;;;28.71
13497;BMP180;6820;49.374;8.452;2023-05-07T09:42:44;100458.63;;;28.63
13497;BMP180;6820;49.374;8.452;2023-05-07T09:46:53;100457.75;;;28.66
13497;BMP180;6820;49.374;8.452;2023-05-07T09:51:02;100459.41;;;28.71
13497;BMP180;6820;49.374;8.452;2023-05-07T09:55:07;100456.66;;;28.83
13497;BMP180;6820;49.374;8.452;2023-05-07T09:59:14;100451.44;;;28.84
13497;BMP180;6820;49.374;8.452;2023-05-07T10:03:18;100443.59;;;28.87
13497;BMP180;6820;49.374;8.452;2023-05-07T10:07:32;100445.34;;;28.85
13497;BMP180;6820;49.374;8.452;2023-05-07T10:11:40;100432.34;;;28.81
13497;BMP180;6820;49.374;8.452;2023-05-07T10:15:42;100423.53;;;28.89
13497;BMP180;6820;49.374;8.452;2023-05-07T10:19:45;100425.31;;;28.87
13497;BMP180;6820;49.374;8.452;2023-05-07T10:24:08;100422.72;;;28.86
13497;BMP180;6820;49.374;8.452;2023-05-07T10:28:17;100429.56;;;28.94
13497;BMP180;6820;49.374;8.452;2023-05-07T10:32:36;100432.94;;;29.04
13497;BMP180;6820;49.374;8.452;2023-05-07T10:36:42;100430.28;;;29.11
13497;BMP180;6820;49.374;8.452;2023-05-07T10:40:44;100422.22;;;29.27
13497;BMP180;6820;49.374;8.452;2023-05-07T10:44:50;100419.19;;;29.57
13497;BMP180;6820;49.374;8.452;2023-05-07T10:53:40;100409.28;;;29.79
13497;BMP180;6820;49.374;8.452;2023-05-07T10:57:48;100399.28;;;30.05
13497;BMP180;6820;49.374;8.452;2023-05-07T11:02:04;100395.50;;;30.22
13497;BMP180;6820;49.374;8.452;2023-05-07T11:06:17;100402.53;;;30.66
13497;BMP180;6820;49.374;8.452;2023-05-07T11:15:14;100382.91;;;31.28
13497;BMP180;6820;49.374;8.452;2023-05-07T11:19:49;100374.69;;;31.45
13497;BMP180;6820;49.374;8.452;2023-05-07T11:23:58;100370.25;;;31.48
13497;BMP180;6820;49.374;8.452;2023-05-07T11:28:13;100376.66;;;31.35
13497;BMP180;6820;49.374;8.452;2023-05-07T11:32:24;100372.34;;;31.33
13497;BMP180;6820;49.374;8.452;2023-05-07T11:36:31;100364.13;;;31.48
13497;BMP180;6820;49.374;8.452;2023-05-07T11:40:54;100359.72;;;31.50
13497;BMP180;6820;49.374;8.452;2023-05-07T11:44:56;100359.09;;;31.39
13497;BMP180;6820;49.374;8.452;2023-05-07T11:49:00;100349.16;;;31.53
13497;BMP180;6820;49.374;8.452;2023-05-07T11:53:07;100344.44;;;31.68
13497;BMP180;6820;49.374;8.452;2023-05-07T11:57:14;100345.91;;;31.79
13497;BMP180;6820;49.374;8.452;2023-05-07T12:01:16;100343.69;;;31.99
13497;BMP180;6820;49.374;8.452;2023-05-07T12:05:18;100339.69;;;32.18
13497;BMP180;6820;49.374;8.452;2023-05-07T12:09:20;100351.53;;;32.32
13497;BMP180;6820;49.374;8.452;2023-05-07T12:13:25;100345.28;;;32.36
13497;BMP180;6820;49.374;8.452;2023-05-07T12:17:28;100341.25;;;32.56
13497;BMP180;6820;49.374;8.452;2023-05-07T12:21:29;100336.44;;;33.00
13497;BMP180;6820;49.374;8.452;2023-05-07T12:25:35;100336.63;;;33.22
13497;BMP180;6820;49.374;8.452;2023-05-07T12:29:37;100336.94;;;33.12
13497;BMP180;6820;49.374;8.452;2023-05-07T12:33:42;100329.59;;;32.94
13497;BMP180;6820;49.374;8.452;2023-05-07T12:37:44;100327.94;;;32.92
13497;BMP180;6820;49.374;8.452;2023-05-07T12:41:54;100329.88;;;33.14
13497;BMP180;6820;49.374;8.452;2023-05-07T12:45:58;100321.13;;;33.42
13497;BMP180;6820;49.374;8.452;2023-05-07T12:50:01;100322.81;;;33.70
13497;BMP180;6820;49.374;8.452;2023-05-07T12:54:02;100319.78;;;33.83
13497;BMP180;6820;49.374;8.452;2023-05-07T12:58:04;100308.16;;;33.63
13497;BMP180;6820;49.374;8.452;2023-05-07T13:02:06;100305.75;;;33.30
13497;BMP180;6820;49.374;8.452;2023-05-07T13:06:09;100301.94;;;33.12
13497;BMP180;6820;49.374;8.452;2023-05-07T13:10:12;100311.28;;;32.93
13497;BMP180;6820;49.374;8.452;2023-05-07T13:14:15;100313.47;;;32.79
13497;BMP180;6820;49.374;8.452;2023-05-07T13:18:17;100310.59;;;32.56
13497;BMP180;6820;49.374;8.452;2023-05-07T13:22:19;100314.69;;;32.36
13497;BMP180;6820;49.374;8.452;2023-05-07T13:26:20;100304.75;;;32.16
13497;BMP180;6820;49.374;8.452;2023-05-07T13:30:27;100318.69;;;31.85
13497;BMP180;6820;49.374;8.452;2023-05-07T13:34:29;100322.50;;;31.36
13497;BMP180;6820;49.374;8.452;2023-05-07T13:38:30;100317.09;;;31.04
13497;BMP180;6820;49.374;8.452;2023-05-07T13:42:32;100315.78;;;30.86
13497;BMP180;6820;49.374;8.452;2023-05-07T13:46:33;100324.97;;;30.63
13497;BMP180;6820;49.374;8.452;2023-05-07T13:50:35;100319.72;;;30.21
13497;BMP180;6820;49.374;8.452;2023-05-07T13:54:37;100330.19;;;29.70
13497;BMP180;6820;49.374;8.452;2023-05-07T13:58:38;100347.75;;;28.97
13497;BMP180;6820;49.374;8.452;2023-05-07T14:02:57;100358.94;;;27.23
13497;BMP180;6820;49.374;8.452;2023-05-07T14:06:59;100350.56;;;26.54
13497;BMP180;6820;49.374;8.452;2023-05-07T14:11:01;100348.03;;;25.47
13497;BMP180;6820;49.374;8.452;2023-05-07T14:15:03;100349.69;;;25.14
13497;BMP180;6820;49.374;8.452;2023-05-07T14:19:04;100360.88;;;24.91
13497;BMP180;6820;49.374;8.452;2023-05-07T14:23:06;100380.44;;;24.35
13497;BMP180;6820;49.374;8.452;2023-05-07T14:27:08;100390.47;;;23.98
13497;BMP180;6820;49.374;8.452;2023-05-07T14:31:09;100461.16;;;23.86
13497;BMP180;6820;49.374;8.452;2023-05-07T14:35:11;100514.06;;;24.14
13497;BMP180;6820;49.374;8.452;2023-05-07T14:39:14;100542.72;;;24.28
13497;BMP180;6820;49.374;8.452;2023-05-07T14:43:15;100547.91;;;24.28
13497;BMP180;6820;49.374;8.452;2023-05-07T14:47:17;100562.22;;;23.97
13497;BMP180;6820;49.374;8.452;2023-05-07T14:51:20;100580.16;;;23.81
13497;BMP180;6820;49.374;8.452;2023-05-07T14:55:22;100580.03;;;23.72
13497;BMP180;6820;49.374;8.452;2023-05-07T14:59:23;100590.34;;;23.66
13497;BMP180;6820;49.374;8.452;2023-05-07T15:03:26;100612.66;;;23.58
13497;BMP180;6820;49.374;8.452;2023-05-07T15:07:28;100610.13;;;23.64
13497;BMP180;6820;49.374;8.452;2023-05-07T15:11:30;100609.41;;;23.74
13497;BMP180;6820;49.374;8.452;2023-05-07T15:15:32;100608.56;;;23.76
13497;BMP180;6820;49.374;8.452;2023-05-07T15:19:34;100616.50;;;23.89
13497;BMP180;6820;49.374;8.452;2023-05-07T15:23:36;100618.34;;;23.99
13497;BMP180;6820;49.374;8.452;2023-05-07T15:27:37;100623.63;;;24.08
13497;BMP180;6820;49.374;8.452;2023-05-07T15:31:39;100615.00;;;24.09
13497;BMP180;6820;49.374;8.452;2023-05-07T15:35:41;100608.06;;;24.07
13497;BMP180;6820;49.374;8.452;2023-05-07T15:39:43;100609.00;;;24.13
13497;BMP180;6820;49.374;8.452;2023-05-07T15:43:47;100597.75;;;24.10
13497;BMP180;6820;49.374;8.452;2023-05-07T15:47:49;100592.50;;;24.02
13497;BMP180;6820;49.374;8.452;2023-05-07T15:51:51;100591.56;;;23.99
13497;BMP180;6820;49.374;8.452;2023-05-07T15:55:55;100595.09;;;24.02
13497;BMP180;6820;49.374;8.452;2023-05-07T15:59:57;100600.31;;;24.08
13497;BMP180;6820;49.374;8.452;2023-05-07T16:03:59;100602.97;;;24.13
13497;BMP180;6820;49.374;8.452;2023-05-07T16:08:01;100590.00;;;24.10
13497;BMP180;6820;49.374;8.452;2023-05-07T16:12:03;100589.06;;;24.05
13497;BMP180;6820;49.374;8.452;2023-05-07T16:16:05;100597.69;;;24.02
13497;BMP180;6820;49.374;8.452;2023-05-07T16:20:07;100587.25;;;23.96
13497;BMP180;6820;49.374;8.452;2023-05-07T16:24:09;100588.09;;;23.95
13497;BMP180;6820;49.374;8.452;2023-05-07T16:28:11;100587.19;;;23.93
13497;BMP180;6820;49.374;8.452;2023-05-07T16:32:12;100591.59;;;24.00
13497;BMP180;6820;49.374;8.452;2023-05-07T16:36:14;100589.94;;;24.05
13497;BMP180;6820;49.374;8.452;2023-05-07T16:40:16;100593.31;;;24.01
13497;BMP180;6820;49.374;8.452;2023-05-07T16:44:17;100589.88;;;24.01
13497;BMP180;6820;49.374;8.452;2023-05-07T16:48:19;100591.59;;;24.00
13497;BMP180;6820;49.374;8.452;2023-05-07T16:52:21;100602.84;;;24.02
13497;BMP180;6820;49.374;8.452;2023-05-07T16:56:23;100601.00;;;23.92
13497;BMP180;6820;49.374;8.452;2023-05-07T17:00:25;100607.78;;;23.82
13497;BMP180;6820;49.374;8.452;2023-05-07T17:04:35;100619.78;;;23.77
13497;BMP180;6820;49.374;8.452;2023-05-07T17:08:37;100616.38;;;23.79
13497;BMP180;6820;49.374;8.452;2023-05-07T17:12:41;100629.34;;;23.81
13497;BMP180;6820;49.374;8.452;2023-05-07T17:16:43;100634.53;;;23.81
13497;BMP180;6820;49.374;8.452;2023-05-07T17:20:45;100641.53;;;23.89
13497;BMP180;6820;49.374;8.452;2023-05-07T17:24:47;100639.72;;;23.82
13497;BMP180;6820;49.374;8.452;2023-05-07T17:28:48;100641.38;;;23.77
13497;BMP180;6820;49.374;8.452;2023-05-07T17:32:50;100639.66;;;23.78
13497;BMP180;6820;49.374;8.452;2023-05-07T17:36:51;100626.59;;;23.69
13497;BMP180;6820;49.374;8.452;2023-05-07T17:40:53;100627.34;;;23.59
13497;BMP180;6820;49.374;8.452;2023-05-07T17:44:55;100616.06;;;23.54
13497;BMP180;6820;49.374;8.452;2023-05-07T17:48:56;100618.22;;;23.26
13497;BMP180;6820;49.374;8.452;2023-05-07T17:52:58;100617.06;;;23.08
13497;BMP180;6820;49.374;8.452;2023-05-07T17:56:59;100620.38;;;22.98
13497;BMP180;6820;49.374;8.452;2023-05-07T18:01:01;100628.34;;;23.11
13497;BMP180;6820;49.374;8.452;2023-05-07T18:05:03;100619.81;;;23.18
13497;BMP180;6820;49.374;8.452;2023-05-07T18:09:05;100628.56;;;23.26
13497;BMP180;6820;49.374;8.452;2023-05-07T18:13:07;100636.59;;;23.45
13497;BMP180;6820;49.374;8.452;2023-05-07T18:17:09;100637.75;;;23.62
13497;BMP180;6820;49.374;8.452;2023-05-07T18:21:11;100652.47;;;23.69
13497;BMP180;6820;49.374;8.452;2023-05-07T18:25:19;100661.00;;;23.59
13497;BMP180;6820;49.374;8.452;2023-05-07T18:29:21;100674.75;;;23.58
13497;BMP180;6820;49.374;8.452;2023-05-07T18:33:23;100676.63;;;23.68
13497;BMP180;6820;49.374;8.452;2023-05-07T18:37:24;100671.53;;;23.74
13497;BMP180;6820;49.374;8.452;2023-05-07T18:41:27;100680.19;;;23.77
13497;BMP180;6820;49.374;8.452;2023-05-07T18:45:28;100675.84;;;23.75
13497;BMP180;6820;49.374;8.452;2023-05-07T18:49:31;100694.06;;;23.82
13497;BMP180;6820;49.374;8.452;2023-05-07T18:53:33;100699.28;;;23.85
13497;BMP180;6820;49.374;8.452;2023-05-07T18:57:34;100697.56;;;23.85
13497;BMP180;6820;49.374;8.452;2023-05-07T19:01:36;100703.59;;;23.83
13497;BMP180;6820;49.374;8.452;2023-05-07T19:05:38;100711.28;;;23.79
13497;BMP180;6820;49.374;8.452;2023-05-07T19:09:40;100708.72;;;23.82
13497;BMP180;6820;49.374;8.452;2023-05-07T19:13:58;100720.66;;;23.71
13497;BMP180;6820;49.374;8.452;2023-05-07T19:18:04;100714.50;;;23.63
13497;BMP180;6820;49.374;8.452;2023-05-07T19:22:07;100718.84;;;23.65
13497;BMP180;6820;49.374;8.452;2023-05-07T19:26:09;100713.75;;;23.70
13497;BMP180;6820;49.374;8.452;2023-05-07T19:30:11;100721.53;;;23.70
13497;BMP180;6820;49.374;8.452;2023-05-07T19:34:12;100723.28;;;23.74
13497;BMP180;6820;49.374;8.452;2023-05-07T19:38:15;100720.75;;;23.75
13497;BMP180;6820;49.374;8.452;2023-05-07T19:42:16;100735.38;;;23.75
13497;BMP180;6820;49.374;8.452;2023-05-07T19:46:18;100735.41;;;23.76
13497;BMP180;6820;49.374;8.452;2023-05-07T19:50:19;100750.06;;;23.76
13497;BMP180;6820;49.374;8.452;2023-05-07T19:54:22;100759.50;;;23.71
13497;BMP180;6820;49.374;8.452;2023-05-07T19:58:24;100760.22;;;23.62
13497;BMP180;6820;49.374;8.452;2023-05-07T20:02:26;100767.91;;;23.56
13497;BMP180;6820;49.374;8.452;2023-05-07T20:06:27;100779.09;;;23.54
13497;BMP180;6820;49.374;8.452;2023-05-07T20:10:29;100785.06;;;23.53
13497;BMP180;6820;49.374;8.452;2023-05-07T20:14:31;100790.38;;;23.59
13497;BMP180;6820;49.374;8.452;2023-05-07T20:18:33;100787.97;;;23.71
13497;BMP180;6820;49.374;8.452;2023-05-07T20:22:34;100794.91;;;23.75
13497;BMP180;6820;49.374;8.452;2023-05-07T20:26:36;100795.75;;;23.74
13497;BMP180;6820;49.374;8.452;2023-05-07T20:30:39;100799.28;;;23.79
13497;BMP180;6820;49.374;8.452;2023-05-07T20:34:40;100802.84;;;23.85
13497;BMP180;6820;49.374;8.452;2023-05-07T20:38:42;100806.34;;;23.88
13497;BMP180;6820;49.374;8.452;2023-05-07T20:42:44;100814.91;;;23.84
13497;BMP180;6820;49.374;8.452;2023-05-07T20:46:46;100813.09;;;23.79
13497;BMP180;6820;49.374;8.452;2023-05-07T20:50:48;100818.28;;;23.78
13497;BMP180;6820;49.374;8.452;2023-05-07T20:54:50;100832.03;;;23.77
13497;BMP180;6820;49.374;8.452;2023-05-07T20:58:51;100823.38;;;23.75
13497;BMP180;6820;49.374;8.452;2023-05-07T21:02:53;100818.25;;;23.76
13497;BMP180;6820;49.374;8.452;2023-05-07T21:06:55;100819.09;;;23.77
13497;BMP180;6820;49.374;8.452;2023-05-07T21:10:57;100831.22;;;23.78
13497;BMP180;6820;49.374;8.452;2023-05-07T21:14:59;100827.78;;;23.80
13497;BMP180;6820;49.374;8.452;2023-05-07T21:19:01;100831.34;;;23.86
13497;BMP180;6820;49.374;8.452;2023-05-07T21:23:03;100832.25;;;23.90
13497;BMP180;6820;49.374;8.452;2023-05-07T21:27:05;100833.16;;;23.92
13497;BMP180;6820;49.374;8.452;2023-05-07T21:31:06;100834.03;;;23.92
13497;BMP180;6820;49.374;8.452;2023-05-07T21:35:08;100836.66;;;23.94
13497;BMP180;6820;49.374;8.452;2023-05-07T21:39:10;100849.47;;;23.88
13497;BMP180;6820;49.374;8.452;2023-05-07T21:43:12;100854.53;;;23.79
13497;BMP180;6820;49.374;8.452;2023-05-07T21:47:14;100855.47;;;23.84
13497;BMP180;6820;49.374;8.452;2023-05-07T21:51:15;100845.25;;;23.91
13497;BMP180;6820;49.374;8.452;2023-05-07T21:55:17;100843.59;;;23.96
13497;BMP180;6820;49.374;8.452;2023-05-07T21:59:19;100847.94;;;24.00
13497;BMP180;6820;49.374;8.452;2023-05-07T22:03:20;100849.69;;;24.01
13497;BMP180;6820;49.374;8.452;2023-05-07T22:07:22;100845.31;;;23.97
13497;BMP180;6820;49.374;8.452;2023-05-07T22:11:24;100843.56;;;23.95
13497;BMP180;6820;49.374;8.452;2023-05-07T22:15:26;100838.41;;;23.96
13497;BMP180;6820;49.374;8.452;2023-05-07T22:19:28;100846.09;;;23.92
13497;BMP180;6820;49.374;8.452;2023-05-07T22:23:30;100846.88;;;23.88
13497;BMP180;6820;49.374;8.452;2023-05-07T22:27:31;100856.38;;;23.86
13497;BMP180;6820;49.374;8.452;2023-05-07T22:31:33;100856.34;;;23.84
13497;BMP180;6820;49.374;8.452;2023-05-07T22:35:34;100857.19;;;23.84
13497;BMP180;6820;49.374;8.452;2023-05-07T22:39:36;100864.09;;;23.84
13497;BMP180;6820;49.374;8.452;2023-05-07T22:43:38;100866.72;;;23.86
13497;BMP180;6820;49.374;8.452;2023-05-07T22:47:39;100859.81;;;23.86
13497;BMP180;6820;49.374;8.452;2023-05-07T22:51:41;100859.78;;;23.85
13497;BMP180;6820;49.374;8.452;2023-05-07T22:55:43;100863.09;;;23.77
13497;BMP180;6820;49.374;8.452;2023-05-07T22:59:44;100857.84;;;23.72
13497;BMP180;6820;49.374;8.452;2023-05-07T23:03:46;100858.63;;;23.65
13497;BMP180;6820;49.374;8.452;2023-05-07T23:07:48;100852.50;;;23.60
13497;BMP180;6820;49.374;8.452;2023-05-07T23:11:49;100846.59;;;23.67
13497;BMP180;6820;49.374;8.452;2023-05-07T23:15:51;100849.22;;;23.70
13497;BMP180;6820;49.374;8.452;2023-05-07T23:19:52;100850.94;;;23.71
13497;BMP180;6820;49.374;8.452;2023-05-07T23:23:54;100842.41;;;23.75
13497;BMP180;6820;49.374;8.452;2023-05-07T23:27:56;100842.44;;;23.78
13497;BMP180;6820;49.374;8.452;2023-05-07T23:31:57;100844.00;;;23.69